sensor_id;sensor_type;location;lat;lon;timestamp;P1;durP1;ratioP1;P2;durP2;ratioP2
23632;SDS011;11993;48.748;9.166;2023-03-04T00:00:54;36.85;;;21.60;;
23632;SDS011;11993;48.748;9.166;2023-03-04T00:03:20;43.10;;;23.42;;
23632;SDS011;11993;48.748;9.166;2023-03-04T00:05:46;43.92;;;22.27;;
23632;SDS011;11993;48.748;9.166;2023-03-04T00:08:11;38.63;;;21.65;;
23632;SDS011;11993;48.748;9.166;2023-03-04T00:10:37;40.75;;;22.00;;
23632;SDS011;11993;48.748;9.166;2023-03-04T00:13:03;38.55;;;22.10;;
23632;SDS011;11993;48.748;9.166;2023-03-04T00:15:28;37.70;;;21.70;;
23632;SDS011;11993;48.748;9.166;2023-03-04T00:17:54;42.38;;;23.38;;
23632;SDS011;11993;48.748;9.166;2023-03-04T00:20:20;37.85;;;21.75;;
23632;SDS011;11993;48.748;9.166;2023-03-04T00:22:45;45.13;;;24.10;;
23632;SDS011;11993;48.748;9.166;2023-03-04T00:25:11;38.42;;;22.15;;
23632;SDS011;11993;48.748;9.166;2023-03-04T00:27:37;39.60;;;22.25;;
23632;SDS011;11993;48.748;9.166;2023-03-04T00:30:03;41.15;;;21.15;;
23632;SDS011;11993;48.748;9.166;2023-03-04T00:32:30;35.72;;;21.30;;
23632;SDS011;11993;48.748;9.166;2023-03-04T00:34:56;39.97;;;22.27;;
23632;SDS011;11993;48.748;9.166;2023-03-04T00:37:21;36.33;;;21.38;;
23632;SDS011;11993;48.748;9.166;2023-03-04T00:39:47;39.58;;;22.00;;
23632;SDS011;11993;48.748;9.166;2023-03-04T00:42:12;35.83;;;20.42;;
23632;SDS011;11993;48.748;9.166;2023-03-04T00:44:38;36.35;;;21.23;;
23632;SDS011;11993;48.748;9.166;2023-03-04T00:47:03;36.72;;;21.73;;
23632;SDS011;11993;48.748;9.166;2023-03-04T00:49:29;40.35;;;21.13;;
23632;SDS011;11993;48.748;9.166;2023-03-04T00:51:54;37.15;;;20.85;;
23632;SDS011;11993;48.748;9.166;2023-03-04T00:54:20;38.45;;;20.95;;
23632;SDS011;11993;48.748;9.166;2023-03-04T00:56:46;37.03;;;20.95;;
23632;SDS011;11993;48.748;9.166;2023-03-04T00:59:11;37.88;;;22.30;;
23632;SDS011;11993;48.748;9.166;2023-03-04T01:01:37;44.90;;;22.50;;
23632;SDS011;11993;48.748;9.166;2023-03-04T01:04:02;39.70;;;20.85;;
23632;SDS011;11993;48.748;9.166;2023-03-04T01:06:28;41.35;;;21.67;;
23632;SDS011;11993;48.748;9.166;2023-03-04T01:08:54;40.95;;;23.95;;
23632;SDS011;11993;48.748;9.166;2023-03-04T01:11:19;39.97;;;21.98;;
23632;SDS011;11993;48.748;9.166;2023-03-04T01:13:45;34.70;;;19.70;;
23632;SDS011;11993;48.748;9.166;2023-03-04T01:16:10;38.53;;;20.95;;
23632;SDS011;11993;48.748;9.166;2023-03-04T01:18:36;35.85;;;20.42;;
23632;SDS011;11993;48.748;9.166;2023-03-04T01:21:02;43.30;;;21.83;;
23632;SDS011;11993;48.748;9.166;2023-03-04T01:23:28;37.40;;;20.38;;
23632;SDS011;11993;48.748;9.166;2023-03-04T01:25:54;38.75;;;21.65;;
23632;SDS011;11993;48.748;9.166;2023-03-04T01:28:19;34.22;;;19.75;;
23632;SDS011;11993;48.748;9.166;2023-03-04T01:30:45;39.08;;;19.45;;
23632;SDS011;11993;48.748;9.166;2023-03-04T01:33:10;37.20;;;19.88;;
23632;SDS011;11993;48.748;9.166;2023-03-04T01:35:36;40.85;;;20.85;;
23632;SDS011;11993;48.748;9.166;2023-03-04T01:38:02;40.50;;;20.13;;
23632;SDS011;11993;48.748;9.166;2023-03-04T01:40:27;38.70;;;21.02;;
23632;SDS011;11993;48.748;9.166;2023-03-04T01:42:53;39.58;;;20.63;;
23632;SDS011;11993;48.748;9.166;2023-03-04T01:45:18;34.65;;;20.00;;
23632;SDS011;11993;48.748;9.166;2023-03-04T01:47:45;42.75;;;21.35;;
23632;SDS011;11993;48.748;9.166;2023-03-04T01:50:19;39.47;;;21.52;;
23632;SDS011;11993;48.748;9.166;2023-03-04T01:52:50;39.25;;;21.13;;
23632;SDS011;11993;48.748;9.166;2023-03-04T01:55:17;35.03;;;19.77;;
23632;SDS011;11993;48.748;9.166;2023-03-04T01:57:45;37.42;;;20.52;;
23632;SDS011;11993;48.748;9.166;2023-03-04T02:02:47;41.65;;;20.73;;
23632;SDS011;11993;48.748;9.166;2023-03-04T02:05:15;35.08;;;20.10;;
23632;SDS011;11993;48.748;9.166;2023-03-04T02:07:41;34.72;;;20.58;;
23632;SDS011;11993;48.748;9.166;2023-03-04T02:10:07;41.17;;;21.45;;
23632;SDS011;11993;48.748;9.166;2023-03-04T02:12:33;35.72;;;20.13;;
23632;SDS011;11993;48.748;9.166;2023-03-04T02:15:05;37.72;;;20.23;;
23632;SDS011;11993;48.748;9.166;2023-03-04T02:17:32;34.22;;;20.65;;
23632;SDS011;11993;48.748;9.166;2023-03-04T02:20:12;33.17;;;19.55;;
23632;SDS011;11993;48.748;9.166;2023-03-04T02:22:48;38.05;;;20.90;;
23632;SDS011;11993;48.748;9.166;2023-03-04T02:25:35;34.63;;;19.90;;
23632;SDS011;11993;48.748;9.166;2023-03-04T02:28:13;35.65;;;19.52;;
23632;SDS011;11993;48.748;9.166;2023-03-04T02:30:39;33.67;;;19.75;;
23632;SDS011;11993;48.748;9.166;2023-03-04T02:33:04;33.00;;;19.20;;
23632;SDS011;11993;48.748;9.166;2023-03-04T02:35:31;47.10;;;20.02;;
23632;SDS011;11993;48.748;9.166;2023-03-04T02:37:56;33.17;;;20.10;;
23632;SDS011;11993;48.748;9.166;2023-03-04T02:40:24;34.63;;;20.45;;
23632;SDS011;11993;48.748;9.166;2023-03-04T02:42:53;32.40;;;18.67;;
23632;SDS011;11993;48.748;9.166;2023-03-04T02:45:29;33.72;;;19.60;;
23632;SDS011;11993;48.748;9.166;2023-03-04T02:47:59;33.65;;;18.85;;
23632;SDS011;11993;48.748;9.166;2023-03-04T02:50:25;34.72;;;19.98;;
23632;SDS011;11993;48.748;9.166;2023-03-04T02:52:53;32.80;;;19.30;;
23632;SDS011;11993;48.748;9.166;2023-03-04T02:55:19;36.53;;;19.35;;
23632;SDS011;11993;48.748;9.166;2023-03-04T02:57:46;37.58;;;22.25;;
23632;SDS011;11993;48.748;9.166;2023-03-04T03:00:11;32.50;;;18.20;;
23632;SDS011;11993;48.748;9.166;2023-03-04T03:02:37;35.53;;;20.02;;
23632;SDS011;11993;48.748;9.166;2023-03-04T03:05:03;37.30;;;19.45;;
23632;SDS011;11993;48.748;9.166;2023-03-04T03:29:23;39.50;;;20.98;;
23632;SDS011;11993;48.748;9.166;2023-03-04T03:31:48;33.53;;;19.48;;
23632;SDS011;11993;48.748;9.166;2023-03-04T03:34:14;34.92;;;19.63;;
23632;SDS011;11993;48.748;9.166;2023-03-04T03:36:40;31.40;;;18.25;;
23632;SDS011;11993;48.748;9.166;2023-03-04T03:39:05;34.95;;;18.58;;
23632;SDS011;11993;48.748;9.166;2023-03-04T03:41:31;34.92;;;17.58;;
23632;SDS011;11993;48.748;9.166;2023-03-04T03:43:56;36.10;;;20.25;;
23632;SDS011;11993;48.748;9.166;2023-03-04T03:46:22;34.38;;;19.35;;
23632;SDS011;11993;48.748;9.166;2023-03-04T03:48:47;28.95;;;17.95;;
23632;SDS011;11993;48.748;9.166;2023-03-04T03:51:13;39.70;;;20.48;;
23632;SDS011;11993;48.748;9.166;2023-03-04T03:53:39;34.53;;;19.33;;
23632;SDS011;11993;48.748;9.166;2023-03-04T03:56:04;35.45;;;19.88;;
23632;SDS011;11993;48.748;9.166;2023-03-04T03:58:30;31.50;;;18.02;;
23632;SDS011;11993;48.748;9.166;2023-03-04T04:00:56;32.25;;;19.15;;
23632;SDS011;11993;48.748;9.166;2023-03-04T04:03:21;33.22;;;18.55;;
23632;SDS011;11993;48.748;9.166;2023-03-04T04:05:47;34.50;;;18.98;;
23632;SDS011;11993;48.748;9.166;2023-03-04T04:08:13;34.92;;;19.55;;
23632;SDS011;11993;48.748;9.166;2023-03-04T04:10:40;38.85;;;19.25;;
23632;SDS011;11993;48.748;9.166;2023-03-04T04:13:06;31.40;;;18.65;;
23632;SDS011;11993;48.748;9.166;2023-03-04T04:15:31;30.73;;;18.85;;
23632;SDS011;11993;48.748;9.166;2023-03-04T04:17:57;35.55;;;20.23;;
23632;SDS011;11993;48.748;9.166;2023-03-04T04:20:23;39.53;;;20.45;;
23632;SDS011;11993;48.748;9.166;2023-03-04T04:22:49;34.40;;;19.92;;
23632;SDS011;11993;48.748;9.166;2023-03-04T04:25:14;33.53;;;18.65;;
23632;SDS011;11993;48.748;9.166;2023-03-04T04:27:40;35.25;;;19.23;;
23632;SDS011;11993;48.748;9.166;2023-03-04T04:30:05;33.00;;;18.58;;
23632;SDS011;11993;48.748;9.166;2023-03-04T04:32:31;37.70;;;20.35;;
23632;SDS011;11993;48.748;9.166;2023-03-04T04:34:57;32.65;;;19.63;;
23632;SDS011;11993;48.748;9.166;2023-03-04T04:37:22;36.58;;;21.05;;
23632;SDS011;11993;48.748;9.166;2023-03-04T04:39:48;33.70;;;20.48;;
23632;SDS011;11993;48.748;9.166;2023-03-04T04:42:15;34.00;;;19.63;;
23632;SDS011;11993;48.748;9.166;2023-03-04T04:44:41;33.38;;;18.88;;
23632;SDS011;11993;48.748;9.166;2023-03-04T04:47:08;36.92;;;19.95;;
23632;SDS011;11993;48.748;9.166;2023-03-04T04:49:33;37.78;;;19.08;;
23632;SDS011;11993;48.748;9.166;2023-03-04T04:51:59;37.40;;;19.25;;
23632;SDS011;11993;48.748;9.166;2023-03-04T04:54:25;32.75;;;18.58;;
23632;SDS011;11993;48.748;9.166;2023-03-04T04:56:50;34.88;;;18.20;;
23632;SDS011;11993;48.748;9.166;2023-03-04T04:59:16;37.10;;;20.45;;
23632;SDS011;11993;48.748;9.166;2023-03-04T05:01:42;38.13;;;20.60;;
23632;SDS011;11993;48.748;9.166;2023-03-04T05:04:07;36.88;;;20.70;;
23632;SDS011;11993;48.748;9.166;2023-03-04T05:06:33;37.13;;;19.27;;
23632;SDS011;11993;48.748;9.166;2023-03-04T05:08:58;35.42;;;19.23;;
23632;SDS011;11993;48.748;9.166;2023-03-04T05:11:24;33.47;;;19.77;;
23632;SDS011;11993;48.748;9.166;2023-03-04T05:13:50;36.05;;;20.40;;
23632;SDS011;11993;48.748;9.166;2023-03-04T05:16:15;35.67;;;20.35;;
23632;SDS011;11993;48.748;9.166;2023-03-04T05:18:42;33.10;;;19.75;;
23632;SDS011;11993;48.748;9.166;2023-03-04T05:21:07;33.83;;;18.85;;
23632;SDS011;11993;48.748;9.166;2023-03-04T05:23:34;38.60;;;20.25;;
23632;SDS011;11993;48.748;9.166;2023-03-04T05:26:02;33.63;;;18.40;;
23632;SDS011;11993;48.748;9.166;2023-03-04T05:28:29;34.30;;;18.83;;
23632;SDS011;11993;48.748;9.166;2023-03-04T05:30:55;34.78;;;19.48;;
23632;SDS011;11993;48.748;9.166;2023-03-04T05:33:21;32.15;;;19.05;;
23632;SDS011;11993;48.748;9.166;2023-03-04T05:35:47;37.50;;;19.63;;
23632;SDS011;11993;48.748;9.166;2023-03-04T05:38:14;35.53;;;20.05;;
23632;SDS011;11993;48.748;9.166;2023-03-04T05:40:41;35.53;;;20.95;;
23632;SDS011;11993;48.748;9.166;2023-03-04T05:43:07;40.60;;;21.35;;
23632;SDS011;11993;48.748;9.166;2023-03-04T05:45:33;34.80;;;20.42;;
23632;SDS011;11993;48.748;9.166;2023-03-04T05:47:59;37.17;;;19.58;;
23632;SDS011;11993;48.748;9.166;2023-03-04T05:50:25;34.33;;;19.60;;
23632;SDS011;11993;48.748;9.166;2023-03-04T05:52:51;35.13;;;19.85;;
23632;SDS011;11993;48.748;9.166;2023-03-04T05:55:16;39.63;;;20.10;;
23632;SDS011;11993;48.748;9.166;2023-03-04T05:57:42;36.67;;;19.20;;
23632;SDS011;11993;48.748;9.166;2023-03-04T06:00:09;36.75;;;19.70;;
23632;SDS011;11993;48.748;9.166;2023-03-04T06:02:37;41.42;;;21.05;;
23632;SDS011;11993;48.748;9.166;2023-03-04T06:05:03;40.45;;;22.42;;
23632;SDS011;11993;48.748;9.166;2023-03-04T06:07:30;34.03;;;20.58;;
23632;SDS011;11993;48.748;9.166;2023-03-04T06:09:56;39.78;;;20.33;;
23632;SDS011;11993;48.748;9.166;2023-03-04T06:12:21;33.28;;;19.90;;
23632;SDS011;11993;48.748;9.166;2023-03-04T06:14:47;41.03;;;22.13;;
23632;SDS011;11993;48.748;9.166;2023-03-04T06:17:14;46.05;;;22.77;;
23632;SDS011;11993;48.748;9.166;2023-03-04T06:19:39;40.45;;;21.83;;
23632;SDS011;11993;48.748;9.166;2023-03-04T06:22:08;43.42;;;21.60;;
23632;SDS011;11993;48.748;9.166;2023-03-04T06:24:34;39.88;;;20.77;;
23632;SDS011;11993;48.748;9.166;2023-03-04T06:27:00;37.08;;;20.45;;
23632;SDS011;11993;48.748;9.166;2023-03-04T06:29:25;38.65;;;19.42;;
23632;SDS011;11993;48.748;9.166;2023-03-04T06:31:51;41.28;;;21.88;;
23632;SDS011;11993;48.748;9.166;2023-03-04T06:34:17;38.25;;;20.95;;
23632;SDS011;11993;48.748;9.166;2023-03-04T06:36:44;41.63;;;21.92;;
23632;SDS011;11993;48.748;9.166;2023-03-04T06:39:10;40.45;;;21.20;;
23632;SDS011;11993;48.748;9.166;2023-03-04T06:41:35;37.88;;;19.33;;
23632;SDS011;11993;48.748;9.166;2023-03-04T06:44:01;42.13;;;21.20;;
23632;SDS011;11993;48.748;9.166;2023-03-04T06:46:27;40.63;;;21.40;;
23632;SDS011;11993;48.748;9.166;2023-03-04T06:48:53;39.92;;;20.63;;
23632;SDS011;11993;48.748;9.166;2023-03-04T06:51:18;42.50;;;21.55;;
23632;SDS011;11993;48.748;9.166;2023-03-04T06:53:44;39.22;;;20.95;;
23632;SDS011;11993;48.748;9.166;2023-03-04T06:56:10;45.47;;;22.92;;
23632;SDS011;11993;48.748;9.166;2023-03-04T06:58:37;37.40;;;20.23;;
23632;SDS011;11993;48.748;9.166;2023-03-04T07:01:13;43.05;;;22.08;;
23632;SDS011;11993;48.748;9.166;2023-03-04T07:03:49;43.83;;;23.27;;
23632;SDS011;11993;48.748;9.166;2023-03-04T07:06:16;39.13;;;21.42;;
23632;SDS011;11993;48.748;9.166;2023-03-04T07:08:43;44.50;;;21.98;;
23632;SDS011;11993;48.748;9.166;2023-03-04T07:11:10;43.25;;;22.70;;
23632;SDS011;11993;48.748;9.166;2023-03-04T07:13:38;44.30;;;22.67;;
23632;SDS011;11993;48.748;9.166;2023-03-04T07:16:10;41.33;;;22.58;;
23632;SDS011;11993;48.748;9.166;2023-03-04T07:18:38;38.63;;;20.92;;
23632;SDS011;11993;48.748;9.166;2023-03-04T07:21:04;46.67;;;23.73;;
23632;SDS011;11993;48.748;9.166;2023-03-04T07:23:31;39.05;;;19.83;;
23632;SDS011;11993;48.748;9.166;2023-03-04T07:25:57;39.42;;;21.35;;
23632;SDS011;11993;48.748;9.166;2023-03-04T07:28:23;51.58;;;23.35;;
23632;SDS011;11993;48.748;9.166;2023-03-04T07:30:48;45.00;;;23.20;;
23632;SDS011;11993;48.748;9.166;2023-03-04T07:33:14;40.15;;;21.60;;
23632;SDS011;11993;48.748;9.166;2023-03-04T07:35:40;47.65;;;21.83;;
23632;SDS011;11993;48.748;9.166;2023-03-04T07:38:05;49.95;;;23.92;;
23632;SDS011;11993;48.748;9.166;2023-03-04T07:40:31;41.92;;;21.98;;
23632;SDS011;11993;48.748;9.166;2023-03-04T07:42:57;42.78;;;21.70;;
23632;SDS011;11993;48.748;9.166;2023-03-04T07:45:23;41.55;;;21.92;;
23632;SDS011;11993;48.748;9.166;2023-03-04T07:47:49;36.95;;;20.77;;
23632;SDS011;11993;48.748;9.166;2023-03-04T07:50:15;39.17;;;20.63;;
23632;SDS011;11993;48.748;9.166;2023-03-04T07:52:42;39.80;;;21.33;;
23632;SDS011;11993;48.748;9.166;2023-03-04T07:55:10;37.53;;;21.08;;
23632;SDS011;11993;48.748;9.166;2023-03-04T07:57:40;35.60;;;19.38;;
23632;SDS011;11993;48.748;9.166;2023-03-04T08:00:07;38.45;;;20.52;;
23632;SDS011;11993;48.748;9.166;2023-03-04T08:02:33;32.78;;;19.05;;
23632;SDS011;11993;48.748;9.166;2023-03-04T08:04:58;31.08;;;18.73;;
23632;SDS011;11993;48.748;9.166;2023-03-04T08:07:25;33.65;;;19.55;;
23632;SDS011;11993;48.748;9.166;2023-03-04T08:09:50;34.40;;;19.30;;
23632;SDS011;11993;48.748;9.166;2023-03-04T08:12:16;39.85;;;19.63;;
23632;SDS011;11993;48.748;9.166;2023-03-04T08:14:42;41.05;;;21.15;;
23632;SDS011;11993;48.748;9.166;2023-03-04T08:17:08;39.25;;;20.58;;
23632;SDS011;11993;48.748;9.166;2023-03-04T08:19:34;33.72;;;19.42;;
23632;SDS011;11993;48.748;9.166;2023-03-04T08:22:00;41.08;;;20.85;;
23632;SDS011;11993;48.748;9.166;2023-03-04T08:24:26;40.95;;;20.85;;
23632;SDS011;11993;48.748;9.166;2023-03-04T08:26:52;40.85;;;22.77;;
23632;SDS011;11993;48.748;9.166;2023-03-04T08:29:21;40.00;;;21.73;;
23632;SDS011;11993;48.748;9.166;2023-03-04T08:31:48;38.92;;;20.52;;
23632;SDS011;11993;48.748;9.166;2023-03-04T08:34:15;41.97;;;21.13;;
23632;SDS011;11993;48.748;9.166;2023-03-04T08:36:42;39.40;;;20.38;;
23632;SDS011;11993;48.748;9.166;2023-03-04T08:39:08;38.45;;;21.65;;
23632;SDS011;11993;48.748;9.166;2023-03-04T08:41:37;36.47;;;19.42;;
23632;SDS011;11993;48.748;9.166;2023-03-04T08:44:03;39.55;;;20.80;;
23632;SDS011;11993;48.748;9.166;2023-03-04T08:46:29;39.38;;;20.38;;
23632;SDS011;11993;48.748;9.166;2023-03-04T08:48:55;34.83;;;18.70;;
23632;SDS011;11993;48.748;9.166;2023-03-04T08:51:20;36.03;;;19.65;;
23632;SDS011;11993;48.748;9.166;2023-03-04T08:53:46;36.42;;;19.67;;
23632;SDS011;11993;48.748;9.166;2023-03-04T08:56:12;33.15;;;18.75;;
23632;SDS011;11993;48.748;9.166;2023-03-04T08:58:39;32.65;;;18.00;;
23632;SDS011;11993;48.748;9.166;2023-03-04T09:01:06;32.33;;;17.98;;
23632;SDS011;11993;48.748;9.166;2023-03-04T09:03:33;43.58;;;21.95;;
23632;SDS011;11993;48.748;9.166;2023-03-04T09:06:00;38.47;;;20.33;;
23632;SDS011;11993;48.748;9.166;2023-03-04T09:08:27;40.60;;;22.10;;
23632;SDS011;11993;48.748;9.166;2023-03-04T09:10:53;41.05;;;21.25;;
23632;SDS011;11993;48.748;9.166;2023-03-04T09:13:19;35.83;;;19.40;;
23632;SDS011;11993;48.748;9.166;2023-03-04T09:15:47;38.90;;;22.65;;
23632;SDS011;11993;48.748;9.166;2023-03-04T09:18:14;38.00;;;20.85;;
23632;SDS011;11993;48.748;9.166;2023-03-04T09:20:45;42.65;;;22.05;;
23632;SDS011;11993;48.748;9.166;2023-03-04T09:23:11;41.05;;;21.50;;
23632;SDS011;11993;48.748;9.166;2023-03-04T09:25:38;32.45;;;18.73;;
23632;SDS011;11993;48.748;9.166;2023-03-04T09:28:04;37.88;;;19.92;;
23632;SDS011;11993;48.748;9.166;2023-03-04T09:30:30;43.47;;;21.33;;
23632;SDS011;11993;48.748;9.166;2023-03-04T09:32:56;36.65;;;21.27;;
23632;SDS011;11993;48.748;9.166;2023-03-04T09:35:22;37.90;;;20.48;;
23632;SDS011;11993;48.748;9.166;2023-03-04T09:37:48;35.38;;;17.13;;
23632;SDS011;11993;48.748;9.166;2023-03-04T09:40:18;41.30;;;20.52;;
23632;SDS011;11993;48.748;9.166;2023-03-04T09:42:51;36.85;;;20.40;;
23632;SDS011;11993;48.748;9.166;2023-03-04T09:45:21;35.08;;;20.30;;
23632;SDS011;11993;48.748;9.166;2023-03-04T09:47:51;32.72;;;19.10;;
23632;SDS011;11993;48.748;9.166;2023-03-04T09:50:18;34.05;;;19.40;;
23632;SDS011;11993;48.748;9.166;2023-03-04T09:53:29;34.17;;;19.33;;
23632;SDS011;11993;48.748;9.166;2023-03-04T09:55:50;42.17;;;21.23;;
23632;SDS011;11993;48.748;9.166;2023-03-04T10:01:02;34.38;;;19.55;;
23632;SDS011;11993;48.748;9.166;2023-03-04T10:06:22;34.15;;;19.10;;
23632;SDS011;11993;48.748;9.166;2023-03-04T10:11:26;45.15;;;25.40;;
23632;SDS011;11993;48.748;9.166;2023-03-04T10:16:41;38.88;;;22.67;;
23632;SDS011;11993;48.748;9.166;2023-03-04T10:21:40;37.40;;;21.20;;
23632;SDS011;11993;48.748;9.166;2023-03-04T10:24:13;38.53;;;21.27;;
23632;SDS011;11993;48.748;9.166;2023-03-04T10:26:42;37.38;;;22.30;;
23632;SDS011;11993;48.748;9.166;2023-03-04T10:29:14;39.88;;;24.27;;
23632;SDS011;11993;48.748;9.166;2023-03-04T10:31:42;44.35;;;24.70;;
23632;SDS011;11993;48.748;9.166;2023-03-04T10:34:10;31.95;;;20.85;;
23632;SDS011;11993;48.748;9.166;2023-03-04T10:36:44;40.10;;;23.45;;
23632;SDS011;11993;48.748;9.166;2023-03-04T10:39:37;40.58;;;23.90;;
23632;SDS011;11993;48.748;9.166;2023-03-04T10:44:43;37.03;;;23.80;;
23632;SDS011;11993;48.748;9.166;2023-03-04T10:47:21;37.33;;;22.85;;
23632;SDS011;11993;48.748;9.166;2023-03-04T10:49:53;39.33;;;24.58;;
23632;SDS011;11993;48.748;9.166;2023-03-04T10:55:06;39.28;;;24.52;;
23632;SDS011;11993;48.748;9.166;2023-03-04T10:57:43;42.40;;;24.75;;
23632;SDS011;11993;48.748;9.166;2023-03-04T11:02:52;63.00;;;34.60;;
23632;SDS011;11993;48.748;9.166;2023-03-04T11:05:49;47.35;;;25.92;;
23632;SDS011;11993;48.748;9.166;2023-03-04T11:08:18;46.28;;;26.75;;
23632;SDS011;11993;48.748;9.166;2023-03-04T11:10:46;44.38;;;26.42;;
23632;SDS011;11993;48.748;9.166;2023-03-04T11:13:21;47.67;;;29.05;;
23632;SDS011;11993;48.748;9.166;2023-03-04T11:18:39;48.17;;;28.98;;
23632;SDS011;11993;48.748;9.166;2023-03-04T11:21:16;54.03;;;31.45;;
23632;SDS011;11993;48.748;9.166;2023-03-04T11:23:59;50.72;;;29.67;;
23632;SDS011;11993;48.748;9.166;2023-03-04T11:26:33;56.33;;;31.38;;
23632;SDS011;11993;48.748;9.166;2023-03-04T11:29:03;60.10;;;33.03;;
23632;SDS011;11993;48.748;9.166;2023-03-04T11:31:55;55.15;;;31.63;;
23632;SDS011;11993;48.748;9.166;2023-03-04T11:34:45;56.55;;;32.10;;
23632;SDS011;11993;48.748;9.166;2023-03-04T11:37:28;51.65;;;30.50;;
23632;SDS011;11993;48.748;9.166;2023-03-04T11:40:01;59.67;;;32.65;;
23632;SDS011;11993;48.748;9.166;2023-03-04T11:45:21;57.58;;;32.88;;
23632;SDS011;11993;48.748;9.166;2023-03-04T11:48:18;50.50;;;31.85;;
23632;SDS011;11993;48.748;9.166;2023-03-04T11:57:02;58.20;;;33.90;;
23632;SDS011;11993;48.748;9.166;2023-03-04T12:02:15;48.75;;;31.27;;
23632;SDS011;11993;48.748;9.166;2023-03-04T12:10:48;49.20;;;27.73;;
23632;SDS011;11993;48.748;9.166;2023-03-04T12:21:47;77.35;;;41.75;;
23632;SDS011;11993;48.748;9.166;2023-03-04T12:24:22;52.58;;;30.98;;
23632;SDS011;11993;48.748;9.166;2023-03-04T12:27:14;47.53;;;30.80;;
23632;SDS011;11993;48.748;9.166;2023-03-04T12:29:58;51.25;;;28.52;;
23632;SDS011;11993;48.748;9.166;2023-03-04T12:32:51;53.92;;;30.55;;
23632;SDS011;11993;48.748;9.166;2023-03-04T12:35:37;47.55;;;29.58;;
23632;SDS011;11993;48.748;9.166;2023-03-04T12:44:02;47.50;;;27.65;;
23632;SDS011;11993;48.748;9.166;2023-03-04T12:55:09;50.53;;;30.33;;
23632;SDS011;11993;48.748;9.166;2023-03-04T12:57:38;51.53;;;29.40;;
23632;SDS011;11993;48.748;9.166;2023-03-04T13:05:32;54.70;;;30.15;;
23632;SDS011;11993;48.748;9.166;2023-03-04T13:08:14;48.10;;;28.95;;
23632;SDS011;11993;48.748;9.166;2023-03-04T13:10:53;58.40;;;31.30;;
23632;SDS011;11993;48.748;9.166;2023-03-04T13:16:01;51.90;;;29.88;;
23632;SDS011;11993;48.748;9.166;2023-03-04T13:18:42;51.67;;;28.88;;
23632;SDS011;11993;48.748;9.166;2023-03-04T13:23:37;56.40;;;31.25;;
23632;SDS011;11993;48.748;9.166;2023-03-04T13:26:07;49.47;;;30.45;;
23632;SDS011;11993;48.748;9.166;2023-03-04T13:28:52;48.70;;;29.40;;
23632;SDS011;11993;48.748;9.166;2023-03-04T13:34:41;55.60;;;30.98;;
23632;SDS011;11993;48.748;9.166;2023-03-04T13:37:26;57.50;;;33.53;;
23632;SDS011;11993;48.748;9.166;2023-03-04T13:42:51;58.67;;;33.55;;
23632;SDS011;11993;48.748;9.166;2023-03-04T13:48:07;40.15;;;22.45;;
23632;SDS011;11993;48.748;9.166;2023-03-04T13:50:56;58.97;;;30.88;;
23632;SDS011;11993;48.748;9.166;2023-03-04T13:53:34;53.00;;;29.23;;
23632;SDS011;11993;48.748;9.166;2023-03-04T13:56:07;51.75;;;28.48;;
23632;SDS011;11993;48.748;9.166;2023-03-04T13:58:42;48.42;;;26.50;;
23632;SDS011;11993;48.748;9.166;2023-03-04T14:01:19;48.13;;;25.60;;
23632;SDS011;11993;48.748;9.166;2023-03-04T14:03:51;49.38;;;26.10;;
23632;SDS011;11993;48.748;9.166;2023-03-04T14:06:19;48.75;;;24.25;;
23632;SDS011;11993;48.748;9.166;2023-03-04T14:08:50;46.22;;;24.42;;
23632;SDS011;11993;48.748;9.166;2023-03-04T14:11:27;50.33;;;25.45;;
23632;SDS011;11993;48.748;9.166;2023-03-04T14:14:07;43.67;;;22.48;;
23632;SDS011;11993;48.748;9.166;2023-03-04T14:16:38;44.92;;;22.02;;
23632;SDS011;11993;48.748;9.166;2023-03-04T14:19:14;50.85;;;24.25;;
23632;SDS011;11993;48.748;9.166;2023-03-04T14:21:48;38.20;;;19.95;;
23632;SDS011;11993;48.748;9.166;2023-03-04T14:24:18;41.35;;;21.33;;
23632;SDS011;11993;48.748;9.166;2023-03-04T14:26:45;39.67;;;20.90;;
23632;SDS011;11993;48.748;9.166;2023-03-04T14:29:21;43.00;;;22.80;;
23632;SDS011;11993;48.748;9.166;2023-03-04T14:31:52;34.85;;;20.23;;
23632;SDS011;11993;48.748;9.166;2023-03-04T14:34:23;39.13;;;20.60;;
23632;SDS011;11993;48.748;9.166;2023-03-04T14:37:00;41.60;;;20.67;;
23632;SDS011;11993;48.748;9.166;2023-03-04T14:39:31;42.80;;;21.65;;
23632;SDS011;11993;48.748;9.166;2023-03-04T14:42:05;41.67;;;21.40;;
23632;SDS011;11993;48.748;9.166;2023-03-04T14:44:44;40.45;;;20.30;;
23632;SDS011;11993;48.748;9.166;2023-03-04T14:50:14;38.65;;;20.30;;
23632;SDS011;11993;48.748;9.166;2023-03-04T14:52:42;43.10;;;20.80;;
23632;SDS011;11993;48.748;9.166;2023-03-04T14:57:38;41.47;;;20.13;;
23632;SDS011;11993;48.748;9.166;2023-03-04T15:00:15;45.72;;;22.05;;
23632;SDS011;11993;48.748;9.166;2023-03-04T15:02:56;87.00;;;42.22;;
23632;SDS011;11993;48.748;9.166;2023-03-04T15:05:28;55.35;;;27.92;;
23632;SDS011;11993;48.748;9.166;2023-03-04T15:08:02;46.65;;;23.77;;
23632;SDS011;11993;48.748;9.166;2023-03-04T15:10:31;41.50;;;22.35;;
23632;SDS011;11993;48.748;9.166;2023-03-04T15:12:59;49.67;;;25.83;;
23632;SDS011;11993;48.748;9.166;2023-03-04T15:15:30;53.22;;;25.23;;
23632;SDS011;11993;48.748;9.166;2023-03-04T15:18:00;52.30;;;25.70;;
23632;SDS011;11993;48.748;9.166;2023-03-04T15:20:28;55.90;;;26.75;;
23632;SDS011;11993;48.748;9.166;2023-03-04T15:22:58;51.95;;;25.35;;
23632;SDS011;11993;48.748;9.166;2023-03-04T15:25:27;45.83;;;24.02;;
23632;SDS011;11993;48.748;9.166;2023-03-04T15:27:53;50.42;;;25.65;;
23632;SDS011;11993;48.748;9.166;2023-03-04T15:30:20;44.15;;;22.30;;
23632;SDS011;11993;48.748;9.166;2023-03-04T15:32:48;43.47;;;21.98;;
23632;SDS011;11993;48.748;9.166;2023-03-04T15:35:15;43.55;;;19.27;;
23632;SDS011;11993;48.748;9.166;2023-03-04T15:37:42;47.45;;;22.92;;
23632;SDS011;11993;48.748;9.166;2023-03-04T15:40:25;45.13;;;21.52;;
23632;SDS011;11993;48.748;9.166;2023-03-04T15:42:51;45.50;;;21.17;;
23632;SDS011;11993;48.748;9.166;2023-03-04T15:45:21;45.75;;;21.00;;
23632;SDS011;11993;48.748;9.166;2023-03-04T15:47:49;37.90;;;19.77;;
23632;SDS011;11993;48.748;9.166;2023-03-04T15:50:16;39.60;;;19.55;;
23632;SDS011;11993;48.748;9.166;2023-03-04T15:52:43;47.40;;;21.98;;
23632;SDS011;11993;48.748;9.166;2023-03-04T15:55:13;48.67;;;21.05;;
23632;SDS011;11993;48.748;9.166;2023-03-04T15:57:40;45.15;;;20.20;;
23632;SDS011;11993;48.748;9.166;2023-03-04T16:00:07;53.38;;;22.52;;
23632;SDS011;11993;48.748;9.166;2023-03-04T16:02:35;47.58;;;19.83;;
23632;SDS011;11993;48.748;9.166;2023-03-04T16:05:01;46.38;;;21.13;;
23632;SDS011;11993;48.748;9.166;2023-03-04T16:07:27;51.97;;;23.08;;
23632;SDS011;11993;48.748;9.166;2023-03-04T16:09:58;41.85;;;21.58;;
23632;SDS011;11993;48.748;9.166;2023-03-04T16:12:27;44.90;;;20.98;;
23632;SDS011;11993;48.748;9.166;2023-03-04T16:14:53;44.35;;;22.42;;
23632;SDS011;11993;48.748;9.166;2023-03-04T16:17:19;47.30;;;22.67;;
23632;SDS011;11993;48.748;9.166;2023-03-04T16:19:44;48.15;;;20.90;;
23632;SDS011;11993;48.748;9.166;2023-03-04T16:22:14;44.63;;;22.00;;
23632;SDS011;11993;48.748;9.166;2023-03-04T16:24:42;41.67;;;19.88;;